createdAt,value
2018-12-03T00:27:17.850Z,995.32
2018-12-03T00:27:18.423Z,995.28
2018-12-03T00:27:19.023Z,995.27
2018-12-03T00:27:19.622Z,995.28
2018-12-03T00:27:20.223Z,995.27
2018-12-03T00:27:20.821Z,995.23
2018-12-03T00:27:21.422Z,995.25
2018-12-03T00:27:22.023Z,995.28
2018-12-03T00:28:15.505Z,995.31
2018-12-03T00:28:16.076Z,995.29
2018-12-03T00:28:16.674Z,995.28
2018-12-03T00:28:17.274Z,995.22
2018-12-03T00:28:17.875Z,995.24
2018-12-03T00:28:18.474Z,995.29
2018-12-03T00:28:19.074Z,995.27
2018-12-03T00:28:19.676Z,995.27
2018-12-03T00:29:14.186Z,995.31
2018-12-03T00:29:14.753Z,995.29
2018-12-03T00:29:15.351Z,995.24
2018-12-03T00:29:15.951Z,995.27
2018-12-03T00:29:16.551Z,995.29
2018-12-03T00:29:17.151Z,995.25
2018-12-03T00:29:17.751Z,995.24
2018-12-03T00:29:18.361Z,995.23
2018-12-03T00:30:12.855Z,995.28
2018-12-03T00:30:13.427Z,995.27
2018-12-03T00:30:14.027Z,995.27
2018-12-03T00:30:14.628Z,995.26
2018-12-03T00:30:15.228Z,995.24
2018-12-03T00:30:15.826Z,995.22
2018-12-03T00:30:16.427Z,995.22
2018-12-03T00:30:17.028Z,995.24
2018-12-03T00:31:11.530Z,995.27
2018-12-03T00:31:12.104Z,995.25
2018-12-03T00:31:12.705Z,995.23
2018-12-03T00:31:13.304Z,995.25
2018-12-03T00:31:13.902Z,995.22
2018-12-03T00:31:14.503Z,995.21
2018-12-03T00:31:15.103Z,995.24
2018-12-03T00:31:15.702Z,995.18
2018-12-03T00:32:09.183Z,995.25
2018-12-03T00:32:09.758Z,995.22
2018-12-03T00:32:10.356Z,995.25
2018-12-03T00:32:10.956Z,995.24
2018-12-03T00:32:11.556Z,995.21
2018-12-03T00:32:12.159Z,995.23
2018-12-03T00:32:12.757Z,995.24
2018-12-03T00:32:13.357Z,995.22
2018-12-03T00:33:07.862Z,995.17
2018-12-03T00:33:08.433Z,995.18
2018-12-03T00:33:09.035Z,995.19
2018-12-03T00:33:09.633Z,995.18
2018-12-03T00:33:10.235Z,995.15
2018-12-03T00:33:10.833Z,995.16
2018-12-03T00:33:11.432Z,995.16
2018-12-03T00:33:12.033Z,995.19
2018-12-03T00:34:06.535Z,995.20
2018-12-03T00:34:07.115Z,995.16
2018-12-03T00:34:07.708Z,995.15
2018-12-03T00:34:08.310Z,995.16
2018-12-03T00:34:08.908Z,995.14
2018-12-03T00:34:09.509Z,995.15
2018-12-03T00:34:10.107Z,995.16
2018-12-03T00:34:10.708Z,995.14
2018-12-03T00:35:05.213Z,995.19
2018-12-03T00:35:05.785Z,995.18
2018-12-03T00:35:06.384Z,995.20
2018-12-03T00:35:06.984Z,995.16
2018-12-03T00:35:07.585Z,995.18
2018-12-03T00:35:08.185Z,995.20
2018-12-03T00:35:08.789Z,995.17
2018-12-03T00:35:09.385Z,995.18
2018-12-03T00:36:02.865Z,995.20
2018-12-03T00:36:03.437Z,995.18
2018-12-03T00:36:04.037Z,995.17
2018-12-03T00:36:04.636Z,995.17
2018-12-03T00:36:05.237Z,995.17
2018-12-03T00:36:05.841Z,995.18
2018-12-03T00:36:06.436Z,995.18
2018-12-03T00:36:07.036Z,995.18
2018-12-03T00:37:00.517Z,995.17
2018-12-03T00:37:01.090Z,995.16
2018-12-03T00:37:01.690Z,995.18
2018-12-03T00:37:02.289Z,995.17
2018-12-03T00:37:02.889Z,995.18
2018-12-03T00:37:03.489Z,995.16
2018-12-03T00:37:04.088Z,995.17
2018-12-03T00:37:04.690Z,995.17
2018-12-03T00:37:59.192Z,995.17
2018-12-03T00:37:59.764Z,995.17
2018-12-03T00:38:00.366Z,995.14
2018-12-03T00:38:00.965Z,995.16
2018-12-03T00:38:01.564Z,995.11
2018-12-03T00:38:02.163Z,995.18
2018-12-03T00:38:02.764Z,995.15
2018-12-03T00:38:03.364Z,995.14
2018-12-03T00:38:56.842Z,995.14
2018-12-03T00:38:57.419Z,995.11
2018-12-03T00:38:58.016Z,995.14
2018-12-03T00:38:58.617Z,995.09
2018-12-03T00:38:59.217Z,995.06
2018-12-03T00:38:59.816Z,995.12
2018-12-03T00:39:00.416Z,995.12
2018-12-03T00:39:01.017Z,995.12
2018-12-03T00:39:55.519Z,995.15
2018-12-03T00:39:56.091Z,995.18
2018-12-03T00:39:56.691Z,995.16
2018-12-03T00:39:57.293Z,995.12
2018-12-03T00:39:57.892Z,995.14
2018-12-03T00:39:58.491Z,995.11
2018-12-03T00:39:59.092Z,995.12
2018-12-03T00:39:59.691Z,995.15
2018-12-03T00:40:53.177Z,995.14
2018-12-03T00:40:53.745Z,995.12
2018-12-03T00:40:54.345Z,995.13
2018-12-03T00:40:54.944Z,995.14
2018-12-03T00:40:55.544Z,995.11
2018-12-03T00:40:56.152Z,995.12
2018-12-03T00:40:56.745Z,995.11
2018-12-03T00:40:57.343Z,995.12
2018-12-03T00:41:50.823Z,995.13
2018-12-03T00:41:51.396Z,995.11
2018-12-03T00:41:51.996Z,995.10
2018-12-03T00:41:52.596Z,995.11
2018-12-03T00:41:53.195Z,995.12
2018-12-03T00:41:53.798Z,995.10
2018-12-03T00:41:54.395Z,995.11
2018-12-03T00:41:54.996Z,995.09
2018-12-03T00:42:48.474Z,995.13
2018-12-03T00:42:49.048Z,995.09
2018-12-03T00:42:49.649Z,995.11
2018-12-03T00:42:50.250Z,995.13
2018-12-03T00:42:50.848Z,995.13
2018-12-03T00:42:51.448Z,995.10
2018-12-03T00:42:52.047Z,995.11
2018-12-03T00:42:52.648Z,995.12
2018-12-03T00:43:47.151Z,995.15
2018-12-03T00:43:47.722Z,995.15
2018-12-03T00:43:48.323Z,995.17
2018-12-03T00:43:48.923Z,995.15
2018-12-03T00:43:49.523Z,995.14
2018-12-03T00:43:50.123Z,995.14
2018-12-03T00:43:50.723Z,995.15
2018-12-03T00:43:51.323Z,995.11
2018-12-03T00:44:45.824Z,995.17
2018-12-03T00:44:46.400Z,995.16
2018-12-03T00:44:46.998Z,995.18
2018-12-03T00:44:47.598Z,995.15
2018-12-03T00:44:48.198Z,995.17
2018-12-03T00:44:48.800Z,995.18
2018-12-03T00:44:49.397Z,995.14
2018-12-03T00:44:50.000Z,995.18
2018-12-03T00:45:44.504Z,995.15
2018-12-03T00:45:45.079Z,995.16
2018-12-03T00:45:45.675Z,995.18
2018-12-03T00:45:46.275Z,995.14
2018-12-03T00:45:46.873Z,995.14
2018-12-03T00:45:47.473Z,995.13
2018-12-03T00:45:48.073Z,995.16
2018-12-03T00:45:48.674Z,995.10
2018-12-03T00:46:42.156Z,995.15
2018-12-03T00:46:42.728Z,995.15
2018-12-03T00:46:43.327Z,995.11
2018-12-03T00:46:43.928Z,995.17
2018-12-03T00:46:44.527Z,995.10
2018-12-03T00:46:45.127Z,995.13
2018-12-03T00:46:45.727Z,995.12
2018-12-03T00:46:46.327Z,995.16
2018-12-03T00:47:40.829Z,995.16
2018-12-03T00:47:41.403Z,995.16
2018-12-03T00:47:42.002Z,995.16
2018-12-03T00:47:42.602Z,995.15
2018-12-03T00:47:43.202Z,995.13
2018-12-03T00:47:43.801Z,995.14
2018-12-03T00:47:44.401Z,995.15
2018-12-03T00:47:45.001Z,995.16
2018-12-03T00:48:39.506Z,995.18
2018-12-03T00:48:40.095Z,995.19
2018-12-03T00:48:40.678Z,995.18
2018-12-03T00:48:41.278Z,995.17
2018-12-03T00:48:41.879Z,995.18
2018-12-03T00:48:42.480Z,995.13
2018-12-03T00:48:43.077Z,995.17
2018-12-03T00:48:43.685Z,995.17
2018-12-03T00:49:37.157Z,995.21
2018-12-03T00:49:37.731Z,995.18
2018-12-03T00:49:38.330Z,995.20
2018-12-03T00:49:38.930Z,995.20
2018-12-03T00:49:39.531Z,995.17
2018-12-03T00:49:40.130Z,995.17
2018-12-03T00:49:40.730Z,995.15
2018-12-03T00:49:41.334Z,995.17
2018-12-03T00:50:35.832Z,995.20
2018-12-03T00:50:36.407Z,995.19
2018-12-03T00:50:37.006Z,995.20
2018-12-03T00:50:37.606Z,995.18
2018-12-03T00:50:38.210Z,995.14
2018-12-03T00:50:38.805Z,995.17
2018-12-03T00:50:39.405Z,995.18
2018-12-03T00:50:40.010Z,995.17
2018-12-03T00:51:34.507Z,995.20
2018-12-03T00:51:35.081Z,995.20
2018-12-03T00:51:35.681Z,995.20
2018-12-03T00:51:36.280Z,995.19
2018-12-03T00:51:36.881Z,995.19
2018-12-03T00:51:37.480Z,995.19
2018-12-03T00:51:38.080Z,995.18
2018-12-03T00:51:38.681Z,995.16
2018-12-03T00:52:33.185Z,995.23
2018-12-03T00:52:33.758Z,995.22
2018-12-03T00:52:34.357Z,995.21
2018-12-03T00:52:34.957Z,995.20
2018-12-03T00:52:35.557Z,995.19
2018-12-03T00:52:36.157Z,995.19
2018-12-03T00:52:36.756Z,995.20
2018-12-03T00:52:37.356Z,995.20
2018-12-03T00:53:31.863Z,995.23
2018-12-03T00:53:32.434Z,995.24
2018-12-03T00:53:33.034Z,995.25
2018-12-03T00:53:33.634Z,995.23
2018-12-03T00:53:34.235Z,995.24
2018-12-03T00:53:34.835Z,995.20
2018-12-03T00:53:35.433Z,995.22
2018-12-03T00:53:36.040Z,995.22
2018-12-03T00:54:30.538Z,995.20
2018-12-03T00:54:31.107Z,995.19
2018-12-03T00:54:31.712Z,995.15
2018-12-03T00:54:32.308Z,995.18
2018-12-03T00:54:32.907Z,995.18
2018-12-03T00:54:33.511Z,995.16
2018-12-03T00:54:34.107Z,995.15
2018-12-03T00:54:34.708Z,995.18
2018-12-03T00:55:28.187Z,995.22
2018-12-03T00:55:28.762Z,995.22
2018-12-03T00:55:29.361Z,995.20
2018-12-03T00:55:29.961Z,995.19
2018-12-03T00:55:30.560Z,995.22
2018-12-03T00:55:31.161Z,995.20
2018-12-03T00:55:31.760Z,995.21
2018-12-03T00:55:32.360Z,995.23
2018-12-03T00:56:25.839Z,995.22
2018-12-03T00:56:26.412Z,995.21
2018-12-03T00:56:27.012Z,995.22
2018-12-03T00:56:27.612Z,995.21
2018-12-03T00:56:28.217Z,995.23
2018-12-03T00:56:28.813Z,995.18
2018-12-03T00:56:29.412Z,995.22
2018-12-03T00:56:30.012Z,995.21
2018-12-03T00:57:24.569Z,995.17
2018-12-03T00:57:25.089Z,995.20
2018-12-03T00:57:25.689Z,995.21
2018-12-03T00:57:26.288Z,995.20
2018-12-03T00:57:26.887Z,995.19
2018-12-03T00:57:27.487Z,995.16
2018-12-03T00:57:28.089Z,995.22
2018-12-03T00:57:28.688Z,995.19
2018-12-03T00:58:22.167Z,995.24
2018-12-03T00:58:22.740Z,995.24
2018-12-03T00:58:23.340Z,995.23
2018-12-03T00:58:23.942Z,995.26
2018-12-03T00:58:24.541Z,995.24
2018-12-03T00:58:25.139Z,995.23
2018-12-03T00:58:25.739Z,995.23
2018-12-03T00:58:26.339Z,995.26
2018-12-03T00:59:20.844Z,995.25
2018-12-03T00:59:21.414Z,995.25
2018-12-03T00:59:22.015Z,995.24
2018-12-03T00:59:22.620Z,995.27
2018-12-03T00:59:23.215Z,995.27
2018-12-03T00:59:23.814Z,995.25
2018-12-03T00:59:24.414Z,995.24
2018-12-03T00:59:25.015Z,995.22
2018-12-03T01:00:18.496Z,995.26
2018-12-03T01:00:19.072Z,995.26
2018-12-03T01:00:19.668Z,995.23
2018-12-03T01:00:20.268Z,995.25
2018-12-03T01:00:20.866Z,995.25
2018-12-03T01:00:21.466Z,995.25
2018-12-03T01:00:22.067Z,995.25
2018-12-03T01:00:22.666Z,995.25
2018-12-03T01:01:17.170Z,995.27
2018-12-03T01:01:17.746Z,995.28
2018-12-03T01:01:18.346Z,995.28
2018-12-03T01:01:18.943Z,995.27
2018-12-03T01:01:19.543Z,995.29
2018-12-03T01:01:20.143Z,995.29
2018-12-03T01:01:20.742Z,995.28
2018-12-03T01:01:21.342Z,995.25
2018-12-03T01:02:15.851Z,995.28
2018-12-03T01:02:16.420Z,995.26
2018-12-03T01:02:17.018Z,995.27
2018-12-03T01:02:17.619Z,995.29
2018-12-03T01:02:18.219Z,995.25
2018-12-03T01:02:18.818Z,995.27
2018-12-03T01:02:19.418Z,995.26
2018-12-03T01:02:20.018Z,995.25
2018-12-03T01:03:14.521Z,995.27
2018-12-03T01:03:15.096Z,995.26
2018-12-03T01:03:15.695Z,995.29
2018-12-03T01:03:16.294Z,995.28
2018-12-03T01:03:16.895Z,995.30
2018-12-03T01:03:17.495Z,995.28
2018-12-03T01:03:18.092Z,995.26
2018-12-03T01:03:18.696Z,995.26
2018-12-03T01:04:13.198Z,995.28
2018-12-03T01:04:13.770Z,995.28
2018-12-03T01:04:14.369Z,995.28
2018-12-03T01:04:14.970Z,995.28
2018-12-03T01:04:15.569Z,995.28
2018-12-03T01:04:16.169Z,995.29
2018-12-03T01:04:16.771Z,995.27
2018-12-03T01:04:17.369Z,995.32
2018-12-03T01:05:10.851Z,995.29
2018-12-03T01:05:11.422Z,995.31
2018-12-03T01:05:12.021Z,995.31
2018-12-03T01:05:12.621Z,995.32
2018-12-03T01:05:13.222Z,995.32
2018-12-03T01:05:13.821Z,995.31
2018-12-03T01:05:14.421Z,995.28
2018-12-03T01:05:15.021Z,995.29
2018-12-03T01:06:09.524Z,995.32
2018-12-03T01:06:10.097Z,995.32
2018-12-03T01:06:10.697Z,995.29
2018-12-03T01:06:11.298Z,995.30
2018-12-03T01:06:11.898Z,995.31
2018-12-03T01:06:12.496Z,995.32
2018-12-03T01:06:13.098Z,995.33
2018-12-03T01:06:13.697Z,995.33
2018-12-03T01:07:07.179Z,995.33
2018-12-03T01:07:07.750Z,995.33
2018-12-03T01:07:08.350Z,995.31
2018-12-03T01:07:08.950Z,995.36
2018-12-03T01:07:09.549Z,995.33
2018-12-03T01:07:10.148Z,995.33
2018-12-03T01:07:10.750Z,995.33
2018-12-03T01:07:11.348Z,995.36
2018-12-03T01:08:05.851Z,995.38
2018-12-03T01:08:06.425Z,995.39
2018-12-03T01:08:07.025Z,995.37
2018-12-03T01:08:07.624Z,995.35
2018-12-03T01:08:08.227Z,995.34
2018-12-03T01:08:08.824Z,995.36
2018-12-03T01:08:09.424Z,995.37
2018-12-03T01:08:10.024Z,995.38
2018-12-03T01:09:04.529Z,995.36
2018-12-03T01:09:05.100Z,995.33
2018-12-03T01:09:05.703Z,995.33
2018-12-03T01:09:06.301Z,995.34
2018-12-03T01:09:06.900Z,995.35
2018-12-03T01:09:07.499Z,995.37
2018-12-03T01:09:08.103Z,995.37
2018-12-03T01:09:08.699Z,995.36
2018-12-03T01:10:03.204Z,995.34
2018-12-03T01:10:03.776Z,995.38
2018-12-03T01:10:04.377Z,995.35
2018-12-03T01:10:04.976Z,995.34
2018-12-03T01:10:05.577Z,995.37
2018-12-03T01:10:06.175Z,995.37
2018-12-03T01:10:06.776Z,995.35
2018-12-03T01:10:07.376Z,995.36
2018-12-03T01:11:01.878Z,995.39
2018-12-03T01:11:02.451Z,995.35
2018-12-03T01:11:03.051Z,995.36
2018-12-03T01:11:03.651Z,995.34
2018-12-03T01:11:04.252Z,995.38
2018-12-03T01:11:04.851Z,995.38
2018-12-03T01:11:05.452Z,995.38
2018-12-03T01:11:06.051Z,995.36
2018-12-03T01:12:00.557Z,995.36
2018-12-03T01:12:01.128Z,995.38
2018-12-03T01:12:01.727Z,995.35
2018-12-03T01:12:02.330Z,995.41
2018-12-03T01:12:02.928Z,995.37
2018-12-03T01:12:03.528Z,995.38
2018-12-03T01:12:04.128Z,995.38
2018-12-03T01:12:04.728Z,995.34
2018-12-03T01:12:58.208Z,995.34
2018-12-03T01:12:58.780Z,995.36
2018-12-03T01:12:59.379Z,995.36
2018-12-03T01:12:59.981Z,995.36
2018-12-03T01:13:00.581Z,995.37
2018-12-03T01:13:01.179Z,995.38
2018-12-03T01:13:01.781Z,995.37
2018-12-03T01:13:02.380Z,995.36
2018-12-03T01:13:56.884Z,995.35
2018-12-03T01:13:57.455Z,995.39
2018-12-03T01:13:58.054Z,995.35
2018-12-03T01:13:58.655Z,995.33
2018-12-03T01:13:59.254Z,995.37
2018-12-03T01:13:59.860Z,995.37
2018-12-03T01:14:00.454Z,995.32
2018-12-03T01:14:01.053Z,995.35
2018-12-03T01:14:54.535Z,995.36
2018-12-03T01:14:55.110Z,995.34
2018-12-03T01:14:55.707Z,995.35
2018-12-03T01:14:56.307Z,995.33
2018-12-03T01:14:56.908Z,995.37
2018-12-03T01:14:57.508Z,995.36
2018-12-03T01:14:58.106Z,995.33
2018-12-03T01:14:58.710Z,995.33
2018-12-03T01:15:52.188Z,995.36
2018-12-03T01:15:52.761Z,995.34
2018-12-03T01:15:53.360Z,995.38
2018-12-03T01:15:53.960Z,995.33
2018-12-03T01:15:54.561Z,995.35
2018-12-03T01:15:55.160Z,995.35
2018-12-03T01:15:55.759Z,995.35
2018-12-03T01:15:56.359Z,995.33
2018-12-03T01:16:49.828Z,995.37
2018-12-03T01:16:50.400Z,995.34
2018-12-03T01:16:51.001Z,995.35
2018-12-03T01:16:51.600Z,995.36
2018-12-03T01:16:52.200Z,995.34
2018-12-03T01:16:52.801Z,995.36
2018-12-03T01:16:53.399Z,995.34
2018-12-03T01:16:53.999Z,995.35
2018-12-03T01:17:48.511Z,995.32
2018-12-03T01:17:49.087Z,995.29
2018-12-03T01:17:49.685Z,995.32
2018-12-03T01:17:50.285Z,995.32
2018-12-03T01:17:50.888Z,995.31
2018-12-03T01:17:51.486Z,995.32
2018-12-03T01:17:52.085Z,995.30
2018-12-03T01:17:52.686Z,995.33
2018-12-03T01:18:46.167Z,995.29
2018-12-03T01:18:46.739Z,995.31
2018-12-03T01:18:47.339Z,995.29
2018-12-03T01:18:47.941Z,995.29
2018-12-03T01:18:48.538Z,995.29
2018-12-03T01:18:49.138Z,995.31
2018-12-03T01:18:49.738Z,995.30
2018-12-03T01:18:50.342Z,995.29
2018-12-03T01:19:43.820Z,995.32
2018-12-03T01:19:44.390Z,995.32
2018-12-03T01:19:44.994Z,995.30
2018-12-03T01:19:45.591Z,995.31
2018-12-03T01:19:46.190Z,995.33
2018-12-03T01:19:46.790Z,995.31
2018-12-03T01:19:47.390Z,995.29
2018-12-03T01:19:47.990Z,995.33
2018-12-03T01:20:41.470Z,995.28
2018-12-03T01:20:42.041Z,995.28
2018-12-03T01:20:42.642Z,995.28
2018-12-03T01:20:43.241Z,995.27
2018-12-03T01:20:43.840Z,995.28
2018-12-03T01:20:44.442Z,995.27
2018-12-03T01:20:45.041Z,995.29
2018-12-03T01:20:45.641Z,995.26
2018-12-03T01:21:39.122Z,995.32
2018-12-03T01:21:39.698Z,995.30
2018-12-03T01:21:40.295Z,995.29
2018-12-03T01:21:40.893Z,995.29
2018-12-03T01:21:41.495Z,995.29
2018-12-03T01:21:42.099Z,995.31
2018-12-03T01:21:42.693Z,995.32
2018-12-03T01:21:43.295Z,995.32
2018-12-03T01:22:37.795Z,995.29
2018-12-03T01:22:38.369Z,995.30
2018-12-03T01:22:38.969Z,995.30
2018-12-03T01:22:39.569Z,995.30
2018-12-03T01:22:40.168Z,995.31
2018-12-03T01:22:40.770Z,995.32
2018-12-03T01:22:41.369Z,995.32
2018-12-03T01:22:41.969Z,995.31
2018-12-03T01:23:35.447Z,995.27
2018-12-03T01:23:36.022Z,995.28
2018-12-03T01:23:36.622Z,995.24
2018-12-03T01:23:37.220Z,995.26
2018-12-03T01:23:37.822Z,995.30
2018-12-03T01:23:38.423Z,995.25
2018-12-03T01:23:39.021Z,995.27
2018-12-03T01:23:39.620Z,995.33
2018-12-03T01:24:34.122Z,995.28
2018-12-03T01:24:34.697Z,995.28
2018-12-03T01:24:35.296Z,995.25
2018-12-03T01:24:35.896Z,995.26
2018-12-03T01:24:36.498Z,995.28
2018-12-03T01:24:37.095Z,995.29
2018-12-03T01:24:37.695Z,995.26
2018-12-03T01:24:38.296Z,995.26
2018-12-03T01:25:31.777Z,995.30
2018-12-03T01:25:32.350Z,995.31
2018-12-03T01:25:32.949Z,995.29
2018-12-03T01:25:33.549Z,995.30
2018-12-03T01:25:34.153Z,995.28
2018-12-03T01:25:34.748Z,995.33
2018-12-03T01:25:35.349Z,995.29
2018-12-03T01:25:35.950Z,995.28
2018-12-03T01:26:29.429Z,995.32
2018-12-03T01:26:30.000Z,995.33
2018-12-03T01:26:30.600Z,995.31
2018-12-03T01:26:31.200Z,995.31
2018-12-03T01:26:31.802Z,995.32
2018-12-03T01:26:32.400Z,995.35
2018-12-03T01:26:33.000Z,995.32
2018-12-03T01:26:33.601Z,995.32
2018-12-03T01:27:27.078Z,995.28
2018-12-03T01:27:27.653Z,995.27
2018-12-03T01:27:28.253Z,995.31
2018-12-03T01:27:28.851Z,995.31
2018-12-03T01:27:29.452Z,995.30
2018-12-03T01:27:30.051Z,995.29
2018-12-03T01:27:30.651Z,995.30
2018-12-03T01:27:31.252Z,995.30
2018-12-03T01:28:24.734Z,995.32
2018-12-03T01:28:25.307Z,995.29
2018-12-03T01:28:25.904Z,995.28
2018-12-03T01:28:26.504Z,995.31
2018-12-03T01:28:27.104Z,995.29
2018-12-03T01:28:27.704Z,995.29
2018-12-03T01:28:28.304Z,995.28
2018-12-03T01:28:28.904Z,995.32
2018-12-03T01:29:22.384Z,995.27
2018-12-03T01:29:22.955Z,995.25
2018-12-03T01:29:23.554Z,995.29
2018-12-03T01:29:24.156Z,995.27
2018-12-03T01:29:24.759Z,995.26
2018-12-03T01:29:25.355Z,995.26
2018-12-03T01:29:25.955Z,995.25
2018-12-03T01:29:26.558Z,995.25
2018-12-03T01:30:20.035Z,995.27
2018-12-03T01:30:20.607Z,995.27
2018-12-03T01:30:21.211Z,995.28
2018-12-03T01:30:21.806Z,995.25
2018-12-03T01:30:22.406Z,995.25
2018-12-03T01:30:23.009Z,995.27
2018-12-03T01:30:23.608Z,995.26
2018-12-03T01:30:24.214Z,995.28
2018-12-03T01:31:17.685Z,995.26
2018-12-03T01:31:18.260Z,995.26
2018-12-03T01:31:18.859Z,995.29
2018-12-03T01:31:19.459Z,995.25
2018-12-03T01:31:20.060Z,995.24
2018-12-03T01:31:20.659Z,995.25
2018-12-03T01:31:21.259Z,995.22
2018-12-03T01:31:21.863Z,995.25
2018-12-03T01:32:16.361Z,995.20
2018-12-03T01:32:16.933Z,995.24
2018-12-03T01:32:17.536Z,995.24
2018-12-03T01:32:18.134Z,995.24
2018-12-03T01:32:18.735Z,995.25
2018-12-03T01:32:19.333Z,995.24
2018-12-03T01:32:19.937Z,995.26
2018-12-03T01:32:20.531Z,995.31
2018-12-03T01:33:14.015Z,995.23
2018-12-03T01:33:14.586Z,995.24
2018-12-03T01:33:15.185Z,995.25
2018-12-03T01:33:15.786Z,995.22
2018-12-03T01:33:16.387Z,995.24
2018-12-03T01:33:16.987Z,995.21
2018-12-03T01:33:17.586Z,995.24
2018-12-03T01:33:18.186Z,995.23
2018-12-03T01:34:12.688Z,995.21
2018-12-03T01:34:13.261Z,995.18
2018-12-03T01:34:13.861Z,995.19
2018-12-03T01:34:14.461Z,995.21
2018-12-03T01:34:15.061Z,995.21
2018-12-03T01:34:15.660Z,995.23
2018-12-03T01:34:16.260Z,995.22
2018-12-03T01:34:16.862Z,995.20
2018-12-03T01:35:11.364Z,995.20
2018-12-03T01:35:11.938Z,995.22
2018-12-03T01:35:12.537Z,995.20
2018-12-03T01:35:13.138Z,995.20
2018-12-03T01:35:13.737Z,995.19
2018-12-03T01:35:14.337Z,995.18
2018-12-03T01:35:14.937Z,995.21
2018-12-03T01:35:15.536Z,995.21
2018-12-03T01:36:09.017Z,995.22
2018-12-03T01:36:09.591Z,995.21
2018-12-03T01:36:10.190Z,995.23
2018-12-03T01:36:10.789Z,995.22
2018-12-03T01:36:11.390Z,995.22
2018-12-03T01:36:11.990Z,995.24
2018-12-03T01:36:12.588Z,995.24
2018-12-03T01:36:13.189Z,995.20
2018-12-03T01:37:06.667Z,995.20
2018-12-03T01:37:07.240Z,995.21
2018-12-03T01:37:07.841Z,995.20
2018-12-03T01:37:08.441Z,995.21
2018-12-03T01:37:09.040Z,995.21
2018-12-03T01:37:09.642Z,995.24
2018-12-03T01:37:10.241Z,995.21
2018-12-03T01:37:10.841Z,995.19
2018-12-03T01:38:04.321Z,995.21
2018-12-03T01:38:04.893Z,995.22
2018-12-03T01:38:05.494Z,995.19
2018-12-03T01:38:06.093Z,995.24
2018-12-03T01:38:06.696Z,995.25
2018-12-03T01:38:07.295Z,995.21
2018-12-03T01:38:07.893Z,995.22
2018-12-03T01:38:08.492Z,995.19
2018-12-03T01:39:02.994Z,995.17
2018-12-03T01:39:03.568Z,995.20
2018-12-03T01:39:04.167Z,995.19
2018-12-03T01:39:04.767Z,995.22
2018-12-03T01:39:05.367Z,995.16
2018-12-03T01:39:05.968Z,995.15
2018-12-03T01:39:06.566Z,995.18
2018-12-03T01:39:07.167Z,995.18
2018-12-03T01:40:00.646Z,995.17
2018-12-03T01:40:01.231Z,995.20
2018-12-03T01:40:01.821Z,995.15
2018-12-03T01:40:02.419Z,995.17
2018-12-03T01:40:03.020Z,995.19
2018-12-03T01:40:03.619Z,995.20
2018-12-03T01:40:04.219Z,995.20
2018-12-03T01:40:04.820Z,995.20
2018-12-03T01:40:59.324Z,995.16
2018-12-03T01:40:59.895Z,995.12
2018-12-03T01:41:00.495Z,995.17
2018-12-03T01:41:01.095Z,995.15
2018-12-03T01:41:01.696Z,995.15
2018-12-03T01:41:02.306Z,995.16
2018-12-03T01:41:02.896Z,995.16
2018-12-03T01:41:03.496Z,995.14
2018-12-03T01:41:56.976Z,995.17
2018-12-03T01:41:57.548Z,995.16
2018-12-03T01:41:58.148Z,995.19
2018-12-03T01:41:58.747Z,995.18
2018-12-03T01:41:59.348Z,995.16
2018-12-03T01:41:59.952Z,995.13
2018-12-03T01:42:00.547Z,995.17
2018-12-03T01:42:01.148Z,995.17
2018-12-03T01:42:54.628Z,995.11
2018-12-03T01:42:55.199Z,995.15
2018-12-03T01:42:55.798Z,995.17
2018-12-03T01:42:56.398Z,995.12
2018-12-03T01:42:56.999Z,995.16
2018-12-03T01:42:57.598Z,995.15
2018-12-03T01:42:58.199Z,995.13
2018-12-03T01:42:58.798Z,995.15
2018-12-03T01:43:53.303Z,995.13
2018-12-03T01:43:53.875Z,995.15
2018-12-03T01:43:54.475Z,995.12
2018-12-03T01:43:55.074Z,995.12
2018-12-03T01:43:55.674Z,995.15
2018-12-03T01:43:56.274Z,995.16
2018-12-03T01:43:56.875Z,995.14
2018-12-03T01:43:57.474Z,995.15
2018-12-03T01:44:51.979Z,995.08
2018-12-03T01:44:52.550Z,995.10
2018-12-03T01:44:53.149Z,995.10
2018-12-03T01:44:53.749Z,995.11
2018-12-03T01:44:54.351Z,995.07
2018-12-03T01:44:54.949Z,995.09
2018-12-03T01:44:55.549Z,995.12
2018-12-03T01:44:56.150Z,995.10
2018-12-03T01:45:49.630Z,995.06
2018-12-03T01:45:50.202Z,995.09
2018-12-03T01:45:50.803Z,995.10
2018-12-03T01:45:51.402Z,995.09
2018-12-03T01:45:52.002Z,995.05
2018-12-03T01:45:52.602Z,995.07
2018-12-03T01:45:53.202Z,995.07
2018-12-03T01:45:53.802Z,995.05
2018-12-03T01:46:47.282Z,995.07
2018-12-03T01:46:47.856Z,995.06
2018-12-03T01:46:48.455Z,995.07
2018-12-03T01:46:49.053Z,995.06
2018-12-03T01:46:49.654Z,995.09
2018-12-03T01:46:50.254Z,995.06
2018-12-03T01:46:50.854Z,995.05
2018-12-03T01:46:51.458Z,995.06
2018-12-03T01:47:45.956Z,995.08
2018-12-03T01:47:46.529Z,995.08
2018-12-03T01:47:47.129Z,995.10
2018-12-03T01:47:47.731Z,995.09
2018-12-03T01:47:48.330Z,995.10
2018-12-03T01:47:48.929Z,995.08
2018-12-03T01:47:49.528Z,995.09
2018-12-03T01:47:50.129Z,995.08
2018-12-03T01:48:44.636Z,995.08
2018-12-03T01:48:45.205Z,995.10
2018-12-03T01:48:45.806Z,995.11
2018-12-03T01:48:47.444Z,995.09
2018-12-03T01:48:47.471Z,995.07
2018-12-03T01:48:47.613Z,995.08
2018-12-03T01:48:48.206Z,995.07
2018-12-03T01:48:48.805Z,995.10
2018-12-03T01:49:43.308Z,995.08
2018-12-03T01:49:43.883Z,995.08
2018-12-03T01:49:44.480Z,995.12
2018-12-03T01:49:45.081Z,995.11
2018-12-03T01:49:45.681Z,995.10
2018-12-03T01:49:46.281Z,995.09
2018-12-03T01:49:46.880Z,995.08
2018-12-03T01:49:47.481Z,995.10
2018-12-03T01:50:41.986Z,995.10
2018-12-03T01:50:42.557Z,995.07
2018-12-03T01:50:43.157Z,995.09
2018-12-03T01:50:43.756Z,995.06
2018-12-03T01:50:44.356Z,995.09
2018-12-03T01:50:44.956Z,995.09
2018-12-03T01:50:45.558Z,995.06
2018-12-03T01:50:46.155Z,995.08
2018-12-03T01:51:40.658Z,995.10
2018-12-03T01:51:41.232Z,995.10
2018-12-03T01:51:41.836Z,995.12
2018-12-03T01:51:42.433Z,995.11
2018-12-03T01:51:43.033Z,995.11
2018-12-03T01:51:43.634Z,995.12
2018-12-03T01:51:44.230Z,995.08
2018-12-03T01:51:44.829Z,995.11
2018-12-03T01:52:39.341Z,995.11
2018-12-03T01:52:39.907Z,995.09
2018-12-03T01:52:40.508Z,995.12
2018-12-03T01:52:41.108Z,995.09
2018-12-03T01:52:41.714Z,995.13
2018-12-03T01:52:42.307Z,995.12
2018-12-03T01:52:42.910Z,995.15
2018-12-03T01:52:43.509Z,995.15
2018-12-03T01:53:36.989Z,995.14
2018-12-03T01:53:37.561Z,995.12
2018-12-03T01:53:38.160Z,995.12
2018-12-03T01:53:38.760Z,995.14
2018-12-03T01:53:39.360Z,995.14
2018-12-03T01:53:39.960Z,995.12
2018-12-03T01:53:40.560Z,995.12
2018-12-03T01:53:41.162Z,995.15
2018-12-03T01:54:35.661Z,995.12
2018-12-03T01:54:36.240Z,995.15
2018-12-03T01:54:36.835Z,995.13
2018-12-03T01:54:37.435Z,995.14
2018-12-03T01:54:38.035Z,995.11
2018-12-03T01:54:38.637Z,995.10
2018-12-03T01:54:39.235Z,995.11
2018-12-03T01:54:39.836Z,995.09
2018-12-03T01:55:33.317Z,995.21
2018-12-03T01:55:33.895Z,995.18
2018-12-03T01:55:34.489Z,995.15
2018-12-03T01:55:35.088Z,995.16
2018-12-03T01:55:35.691Z,995.18
2018-12-03T01:55:36.288Z,995.19
2018-12-03T01:55:36.888Z,995.19
2018-12-03T01:55:37.488Z,995.20
2018-12-03T01:56:30.969Z,995.16
2018-12-03T01:56:31.540Z,995.20
2018-12-03T01:56:32.139Z,995.21
2018-12-03T01:56:32.739Z,995.18
2018-12-03T01:56:33.339Z,995.21
2018-12-03T01:56:33.939Z,995.19
2018-12-03T01:56:34.540Z,995.17
2018-12-03T01:56:35.139Z,995.20
2018-12-03T01:57:29.641Z,995.18
2018-12-03T01:57:30.213Z,995.19
2018-12-03T01:57:30.815Z,995.20
2018-12-03T01:57:31.415Z,995.19
2018-12-03T01:57:32.014Z,995.19